Time;durP1;ratioP1;P1;durP2;ratioP2;P2;SDS_P1;SDS_P2;PMS_P1;PMS_P2;Temp;Humidity;BMP_temperature;BMP_pressure;BME280_temperature;BME280_humidity;BME280_pressure;Samples;Min_cycle;Max_cycle;Signal;HPM_P1;HPM_P2
2022/10/10 00:01:50;;;;;;;7.90;3.58;;;8.80;99.90;;;;;;5045300;28;20094;-86
2022/10/10 00:04:16;;;;;;;8.52;3.60;;;8.80;99.90;;;;;;5052172;28;20029;-87
2022/10/10 00:06:41;;;;;;;5.32;3.47;;;8.80;99.90;;;;;;5052624;28;20032;-86
2022/10/10 00:09:07;;;;;;;6.00;3.50;;;8.80;99.90;;;;;;5046747;28;20029;-86
2022/10/10 00:11:34;;;;;;;8.32;3.08;;;8.80;99.90;;;;;;5050320;28;20535;-87
2022/10/10 00:14:00;;;;;;;7.13;4.43;;;8.70;99.90;;;;;;5051566;28;20393;-86
2022/10/10 00:16:25;;;;;;;6.75;3.70;;;8.70;99.90;;;;;;5051959;28;20029;-86
2022/10/10 00:18:51;;;;;;;5.72;3.55;;;8.70;99.90;;;;;;5051585;28;20112;-86
2022/10/10 00:21:17;;;;;;;10.43;4.05;;;8.70;99.90;;;;;;5047981;28;20541;-86
2022/10/10 00:23:42;;;;;;;7.25;3.85;;;8.70;99.90;;;;;;5050587;28;20123;-86
2022/10/10 00:26:08;;;;;;;10.13;3.70;;;8.70;99.90;;;;;;5052023;28;20025;-86
2022/10/10 00:28:37;;;;;;;6.20;3.35;;;8.70;99.90;;;;;;5052426;28;20029;-86
2022/10/10 00:31:03;;;;;;;7.82;3.70;;;8.70;99.90;;;;;;5049756;28;20081;-86
2022/10/10 00:33:29;;;;;;;7.10;3.42;;;8.60;99.90;;;;;;5051814;28;20029;-86
2022/10/10 00:35:54;;;;;;;8.52;4.05;;;8.60;99.90;;;;;;5043885;28;20025;-86
2022/10/10 00:38:20;;;;;;;5.85;3.47;;;8.60;99.90;;;;;;5050715;28;20029;-86
2022/10/10 00:40:48;;;;;;;8.25;3.38;;;8.60;99.90;;;;;;5050198;28;20025;-86
2022/10/10 00:43:15;;;;;;;5.85;3.58;;;8.60;99.90;;;;;;5049916;28;20124;-86
2022/10/10 00:45:43;;;;;;;8.93;4.47;;;8.60;99.90;;;;;;5045895;28;20366;-87
2022/10/10 00:48:43;;;;;;;6.75;2.95;;;8.60;99.90;;;;;;5050765;28;20485;-86
2022/10/10 00:51:11;;;;;;;10.25;4.00;;;8.60;99.90;;;;;;5006958;28;20045;-87
2022/10/10 00:53:50;;;;;;;6.35;3.65;;;8.50;99.90;;;;;;5041695;28;20034;-86
2022/10/10 00:56:20;;;;;;;8.32;4.85;;;8.50;99.90;;;;;;5050491;28;20059;-86
2022/10/10 00:58:50;;;;;;;7.60;4.22;;;8.50;99.90;;;;;;5050481;28;20029;-86
2022/10/10 01:01:16;;;;;;;8.18;3.78;;;8.50;99.90;;;;;;5048515;28;20025;-86
2022/10/10 01:03:42;;;;;;;9.25;4.13;;;8.40;99.90;;;;;;5049729;28;20115;-85
2022/10/10 01:06:07;;;;;;;7.90;4.07;;;8.40;99.90;;;;;;5052009;28;20021;-86
2022/10/10 01:08:33;;;;;;;7.00;3.58;;;8.40;99.90;;;;;;5044445;28;20833;-86
2022/10/10 01:11:33;;;;;;;9.45;3.75;;;8.40;99.90;;;;;;5048572;28;20037;-86
2022/10/10 01:14:04;;;;;;;11.68;3.85;;;8.40;99.90;;;;;;5064654;28;20120;-86
2022/10/10 01:16:48;;;;;;;6.72;3.70;;;8.30;99.90;;;;;;5044157;28;20025;-86
2022/10/10 01:19:23;;;;;;;7.40;3.60;;;8.30;99.90;;;;;;5051288;28;20039;-87
2022/10/10 01:22:11;;;;;;;8.80;3.72;;;8.30;99.90;;;;;;5059229;28;20025;-86
2022/10/10 01:25:01;;;;;;;7.28;3.95;;;8.30;99.90;;;;;;5045963;28;20029;-86
2022/10/10 01:27:37;;;;;;;9.07;3.80;;;8.30;99.90;;;;;;5044096;28;20032;-86
2022/10/10 01:30:09;;;;;;;7.40;4.15;;;8.30;99.90;;;;;;5046848;28;20040;-86
2022/10/10 01:32:43;;;;;;;5.80;3.53;;;8.30;99.90;;;;;;5039721;28;20061;-86
2022/10/10 01:35:24;;;;;;;9.02;4.28;;;8.30;99.90;;;;;;5051868;28;20029;-86
2022/10/10 01:38:18;;;;;;;9.68;4.63;;;8.30;99.90;;;;;;5048445;28;20120;-86
2022/10/10 01:40:58;;;;;;;8.45;3.78;;;8.30;99.90;;;;;;5045919;28;20032;-86
2022/10/10 01:43:25;;;;;;;7.05;3.97;;;8.20;99.90;;;;;;5048710;28;20017;-85
2022/10/10 01:45:52;;;;;;;6.20;3.80;;;8.20;99.90;;;;;;5047011;28;20075;-86
2022/10/10 01:48:23;;;;;;;9.48;4.43;;;8.20;99.90;;;;;;5047263;28;20032;-86
2022/10/10 01:51:14;;;;;;;9.23;3.88;;;8.20;99.90;;;;;;5050022;28;20389;-86
2022/10/10 01:54:07;;;;;;;6.90;3.38;;;8.20;99.90;;;;;;5051373;28;20508;-86
2022/10/10 01:56:41;;;;;;;6.78;3.55;;;8.20;99.90;;;;;;5045536;28;20493;-85
2022/10/10 01:59:15;;;;;;;6.70;4.00;;;8.20;99.90;;;;;;5048410;28;20033;-85
2022/10/10 02:01:52;;;;;;;7.22;3.97;;;8.20;99.90;;;;;;5046491;28;20025;-86
2022/10/10 02:04:33;;;;;;;7.85;4.43;;;8.20;99.90;;;;;;5047514;28;20079;-85
2022/10/10 02:07:32;;;;;;;7.78;3.72;;;8.10;99.90;;;;;;5048596;28;20021;-85
2022/10/10 02:10:01;;;;;;;7.75;4.25;;;8.10;99.90;;;;;;5063202;28;20025;-85
2022/10/10 02:12:29;;;;;;;8.27;3.80;;;8.10;99.90;;;;;;5048278;28;20130;-85
2022/10/10 02:15:01;;;;;;;7.90;3.92;;;8.10;99.90;;;;;;5049260;28;20037;-85
2022/10/10 02:17:28;;;;;;;9.20;4.18;;;8.10;99.90;;;;;;5046315;28;20074;-86
2022/10/10 02:19:57;;;;;;;8.38;3.88;;;8.10;99.90;;;;;;5047336;28;20033;-85
2022/10/10 02:22:24;;;;;;;6.65;4.30;;;8.10;99.90;;;;;;5049293;28;20036;-85
2022/10/10 02:24:53;;;;;;;7.63;4.03;;;8.00;99.90;;;;;;5046165;28;20032;-85
2022/10/10 02:27:34;;;;;;;9.45;4.78;;;8.10;99.90;;;;;;5046724;28;20032;-86
2022/10/10 02:30:02;;;;;;;9.68;4.18;;;8.00;99.90;;;;;;5046787;28;20068;-85
2022/10/10 02:32:35;;;;;;;9.15;4.22;;;8.00;99.90;;;;;;5045909;28;20048;-85
2022/10/10 02:35:07;;;;;;;7.80;4.68;;;8.00;99.90;;;;;;5048869;28;20103;-86
2022/10/10 02:37:34;;;;;;;11.07;4.50;;;8.00;99.90;;;;;;5047291;28;20143;-85
2022/10/10 02:40:03;;;;;;;9.90;4.30;;;8.00;99.90;;;;;;5045152;28;20025;-86
2022/10/10 02:42:29;;;;;;;6.95;4.35;;;8.00;99.90;;;;;;5046096;28;20068;-86
2022/10/10 02:44:56;;;;;;;9.32;4.75;;;7.90;99.90;;;;;;5045450;28;20026;-86
2022/10/10 02:47:22;;;;;;;8.73;4.85;;;7.90;99.90;;;;;;5047782;28;20056;-85
2022/10/10 02:49:47;;;;;;;7.90;4.20;;;7.90;99.90;;;;;;5044125;28;20056;-86
2022/10/10 02:52:14;;;;;;;7.40;4.50;;;7.90;99.90;;;;;;5044767;28;20076;-86
2022/10/10 02:54:40;;;;;;;9.05;4.63;;;7.90;99.90;;;;;;5037509;28;20026;-86
2022/10/10 02:57:06;;;;;;;8.95;4.68;;;7.90;99.90;;;;;;5040741;28;20087;-86
2022/10/10 02:59:31;;;;;;;12.70;5.05;;;7.80;99.90;;;;;;5048909;28;20031;-85
2022/10/10 03:01:57;;;;;;;7.40;4.60;;;7.80;99.90;;;;;;5045470;28;20037;-85
2022/10/10 03:04:22;;;;;;;8.30;4.60;;;7.80;99.90;;;;;;5046184;28;20029;-85
2022/10/10 03:06:48;;;;;;;8.05;4.50;;;7.80;99.90;;;;;;5046083;28;20062;-86
2022/10/10 03:09:13;;;;;;;7.85;4.20;;;7.80;99.90;;;;;;5044702;28;20167;-86
2022/10/10 03:11:39;;;;;;;10.18;5.07;;;7.70;99.90;;;;;;5047481;28;20112;-86
2022/10/10 03:14:05;;;;;;;12.00;5.28;;;7.70;99.90;;;;;;5046864;28;20104;-86
2022/10/10 03:16:30;;;;;;;8.13;4.22;;;7.70;99.90;;;;;;5048544;28;20563;-85
2022/10/10 03:18:56;;;;;;;9.80;4.72;;;7.60;99.90;;;;;;5047816;28;20028;-86
2022/10/10 03:21:21;;;;;;;6.88;4.32;;;7.60;99.90;;;;;;5045991;28;20029;-86
2022/10/10 03:23:47;;;;;;;7.40;4.97;;;7.60;99.90;;;;;;5046905;28;20114;-86
2022/10/10 03:26:12;;;;;;;9.07;4.72;;;7.60;99.90;;;;;;5047790;28;20029;-86
2022/10/10 03:28:38;;;;;;;8.73;5.03;;;7.60;99.90;;;;;;5048669;28;20029;-86
2022/10/10 03:31:04;;;;;;;9.48;4.80;;;7.60;99.90;;;;;;5048078;28;20134;-86
2022/10/10 03:33:29;;;;;;;8.27;5.20;;;7.60;99.90;;;;;;5046561;28;20195;-85
2022/10/10 03:35:55;;;;;;;10.88;4.68;;;7.60;99.90;;;;;;5059502;28;20413;-86
2022/10/10 03:38:20;;;;;;;8.10;4.80;;;7.60;99.90;;;;;;5049874;28;20028;-86
2022/10/10 03:40:47;;;;;;;10.68;4.82;;;7.60;99.90;;;;;;5047633;28;20572;-86
2022/10/10 03:43:13;;;;;;;10.50;5.28;;;7.60;99.90;;;;;;5049425;28;20033;-86
2022/10/10 03:45:42;;;;;;;8.02;5.57;;;7.60;99.90;;;;;;5049445;28;20083;-86
2022/10/10 03:48:08;;;;;;;9.68;5.20;;;7.60;99.90;;;;;;5050948;28;20115;-86
2022/10/10 03:50:34;;;;;;;9.63;5.18;;;7.60;99.90;;;;;;5051799;28;20099;-86
2022/10/10 03:53:00;;;;;;;8.75;4.38;;;7.60;99.90;;;;;;5052034;28;20025;-86
2022/10/10 03:55:25;;;;;;;10.30;4.95;;;7.60;99.90;;;;;;5054176;28;20025;-86
2022/10/10 03:57:51;;;;;;;7.53;4.70;;;7.60;99.90;;;;;;5051983;28;20025;-86
2022/10/10 04:00:16;;;;;;;9.15;4.75;;;7.60;99.90;;;;;;5048627;28;20049;-86
2022/10/10 04:02:42;;;;;;;11.68;4.97;;;7.50;99.90;;;;;;5050995;28;20021;-86
2022/10/10 04:05:08;;;;;;;8.63;5.00;;;7.50;99.90;;;;;;5052838;28;20033;-86
2022/10/10 04:07:34;;;;;;;9.70;5.00;;;7.50;99.90;;;;;;5072093;28;20036;-87
2022/10/10 04:09:59;;;;;;;10.30;5.18;;;7.50;99.90;;;;;;5051434;28;20029;-86
2022/10/10 04:12:25;;;;;;;10.10;5.70;;;7.50;99.90;;;;;;5050586;28;20033;-86
2022/10/10 04:14:50;;;;;;;8.82;4.80;;;7.40;99.90;;;;;;5051800;28;20028;-87
2022/10/10 04:17:16;;;;;;;10.95;5.40;;;7.40;99.90;;;;;;5050182;28;20036;-86
2022/10/10 04:19:41;;;;;;;10.20;5.25;;;7.40;99.90;;;;;;5049483;28;20033;-86
2022/10/10 04:22:07;;;;;;;18.52;8.63;;;7.40;99.90;;;;;;5050856;28;20444;-86
2022/10/10 04:24:33;;;;;;;10.80;5.70;;;7.40;99.90;;;;;;5053038;28;20150;-87
2022/10/10 04:26:58;;;;;;;9.57;4.95;;;7.30;99.90;;;;;;5039634;28;20057;-86
2022/10/10 04:29:24;;;;;;;8.30;5.10;;;7.30;99.90;;;;;;5049905;28;20119;-86
2022/10/10 04:31:49;;;;;;;10.25;5.53;;;7.30;99.90;;;;;;5049322;28;20072;-86
2022/10/10 04:34:15;;;;;;;13.63;5.47;;;7.30;99.90;;;;;;5051546;28;20040;-86
2022/10/10 04:36:41;;;;;;;11.63;5.13;;;7.30;99.90;;;;;;5051208;28;20033;-86
2022/10/10 04:39:06;;;;;;;9.95;5.85;;;7.30;99.90;;;;;;5052570;28;20112;-86
2022/10/10 04:41:32;;;;;;;11.07;5.57;;;7.30;99.90;;;;;;5045348;28;20109;-85
2022/10/10 04:43:58;;;;;;;9.38;5.88;;;7.20;99.90;;;;;;5051239;28;20059;-85
2022/10/10 04:46:24;;;;;;;13.35;6.35;;;7.30;99.90;;;;;;5050385;28;20059;-87
2022/10/10 04:48:49;;;;;;;9.57;4.85;;;7.20;99.90;;;;;;5051269;28;20033;-86
2022/10/10 04:51:15;;;;;;;12.07;5.65;;;7.20;99.90;;;;;;5049689;28;20041;-86
2022/10/10 04:53:40;;;;;;;9.80;5.18;;;7.20;99.90;;;;;;5043532;28;20091;-87
2022/10/10 04:56:06;;;;;;;10.88;5.82;;;7.20;99.90;;;;;;5041870;28;20051;-86
2022/10/10 04:58:31;;;;;;;11.80;5.68;;;7.20;99.90;;;;;;5049330;28;20108;-86
2022/10/10 05:00:57;;;;;;;8.38;5.32;;;7.20;99.90;;;;;;5051580;28;20029;-86
2022/10/10 05:03:24;;;;;;;9.52;5.78;;;7.20;99.90;;;;;;5051790;28;20021;-87
2022/10/10 05:05:50;;;;;;;12.52;5.93;;;7.20;99.90;;;;;;5052567;28;20543;-86
2022/10/10 05:08:16;;;;;;;11.27;5.30;;;7.20;99.90;;;;;;5051017;28;20029;-88
2022/10/10 05:10:42;;;;;;;12.23;5.82;;;7.20;99.90;;;;;;5050954;28;20040;-87
2022/10/10 05:13:11;;;;;;;12.60;6.00;;;7.20;99.90;;;;;;5050823;28;20024;-86
2022/10/10 05:15:37;;;;;;;10.02;5.85;;;7.20;99.90;;;;;;5051145;28;20124;-86
2022/10/10 05:18:03;;;;;;;12.32;5.80;;;7.20;99.90;;;;;;5049227;28;20558;-87
2022/10/10 05:20:31;;;;;;;10.75;6.38;;;7.10;99.90;;;;;;5053097;28;20021;-87
2022/10/10 05:22:56;;;;;;;13.68;6.03;;;7.20;99.90;;;;;;5051462;28;20496;-86
2022/10/10 05:25:22;;;;;;;9.75;5.82;;;7.10;99.90;;;;;;5051108;28;20029;-87
2022/10/10 05:27:47;;;;;;;12.90;6.35;;;7.10;99.90;;;;;;5048086;28;20024;-87
2022/10/10 05:30:13;;;;;;;11.40;6.57;;;7.10;99.90;;;;;;5048630;28;20489;-87
2022/10/10 05:32:39;;;;;;;12.95;5.95;;;7.10;99.90;;;;;;5049202;28;20484;-87
2022/10/10 05:35:05;;;;;;;12.40;6.50;;;7.10;99.90;;;;;;5049808;28;20021;-87
2022/10/10 05:37:31;;;;;;;8.93;5.70;;;7.10;99.90;;;;;;5048443;28;20445;-87
2022/10/10 05:39:56;;;;;;;10.13;5.75;;;7.00;99.90;;;;;;5048872;28;20043;-88
2022/10/10 05:42:22;;;;;;;9.85;5.88;;;7.10;99.90;;;;;;5045076;28;20032;-88
2022/10/10 05:44:48;;;;;;;9.88;5.55;;;7.00;99.90;;;;;;5052498;28;20029;-87
2022/10/10 05:47:14;;;;;;;13.88;7.10;;;7.00;99.90;;;;;;5037496;28;20394;-89
2022/10/10 05:49:39;;;;;;;11.27;6.00;;;7.00;99.90;;;;;;5038110;28;20029;-87
2022/10/10 05:52:05;;;;;;;14.65;6.78;;;7.00;99.90;;;;;;5049027;28;20033;-87
2022/10/10 05:54:30;;;;;;;12.60;6.57;;;7.00;99.90;;;;;;5048935;28;20143;-87
2022/10/10 05:56:56;;;;;;;12.32;6.75;;;7.00;99.90;;;;;;5032854;28;20520;-87
2022/10/10 05:59:22;;;;;;;13.50;7.43;;;7.00;99.90;;;;;;5039546;28;20025;-87
2022/10/10 06:01:47;;;;;;;11.25;6.68;;;7.00;99.90;;;;;;5043752;28;20044;-86
2022/10/10 06:04:13;;;;;;;16.05;6.65;;;7.00;99.90;;;;;;5052434;28;20028;-88
2022/10/10 06:06:39;;;;;;;14.88;6.63;;;7.00;99.90;;;;;;5042930;28;20119;-87
2022/10/10 06:09:04;;;;;;;12.82;6.43;;;7.00;99.90;;;;;;5035564;28;20029;-88
2022/10/10 06:11:30;;;;;;;11.10;6.38;;;7.10;99.90;;;;;;5048937;28;20029;-87
2022/10/10 06:13:56;;;;;;;12.50;6.38;;;7.00;99.90;;;;;;5044301;28;20051;-88
2022/10/10 06:16:23;;;;;;;11.90;7.07;;;7.00;99.90;;;;;;5048344;28;20025;-87
2022/10/10 06:18:49;;;;;;;10.98;6.40;;;7.10;99.90;;;;;;5051010;28;20515;-87
2022/10/10 06:21:15;;;;;;;14.27;6.93;;;7.10;99.90;;;;;;5050039;28;20123;-87
2022/10/10 06:23:41;;;;;;;11.07;6.43;;;7.10;99.90;;;;;;5044294;28;20116;-88
2022/10/10 06:26:07;;;;;;;9.38;6.15;;;7.10;99.90;;;;;;5041818;28;20053;-88
2022/10/10 06:28:34;;;;;;;11.57;6.05;;;7.20;99.90;;;;;;5036611;28;20018;-87
2022/10/10 06:31:04;;;;;;;11.30;5.90;;;7.20;99.90;;;;;;5037837;28;20500;-87
2022/10/10 06:33:30;;;;;;;10.43;6.25;;;7.30;99.90;;;;;;5040064;28;20036;-88
2022/10/10 06:35:56;;;;;;;12.77;6.50;;;7.40;99.90;;;;;;5037069;28;20037;-86
2022/10/10 06:38:21;;;;;;;12.55;6.22;;;7.40;99.90;;;;;;5047125;28;20043;-89
2022/10/10 06:40:47;;;;;;;9.65;6.20;;;7.50;99.90;;;;;;5043348;28;20033;-88
2022/10/10 06:43:14;;;;;;;17.65;6.78;;;7.60;99.90;;;;;;5047283;28;20021;-88
2022/10/10 06:45:42;;;;;;;11.90;6.50;;;7.70;99.90;;;;;;5044634;28;20026;-87
2022/10/10 06:48:08;;;;;;;11.90;6.53;;;7.90;99.90;;;;;;5044920;28;20043;-88
2022/10/10 06:50:34;;;;;;;10.80;6.63;;;8.00;99.90;;;;;;5038685;28;20099;-89
2022/10/10 06:53:00;;;;;;;9.40;6.10;;;8.10;99.90;;;;;;5038279;28;20029;-88
2022/10/10 06:55:26;;;;;;;17.08;6.28;;;8.20;99.90;;;;;;5038343;28;20032;-88
2022/10/10 06:57:51;;;;;;;12.05;5.60;;;8.30;99.90;;;;;;5044187;28;20083;-88
2022/10/10 07:00:17;;;;;;;13.20;5.70;;;8.40;99.90;;;;;;5042762;28;20021;-88
2022/10/10 07:02:43;;;;;;;11.68;6.07;;;8.50;99.90;;;;;;5040482;28;20070;-88
2022/10/10 07:05:11;;;;;;;11.52;5.68;;;8.50;99.90;;;;;;5050903;28;20037;-89
2022/10/10 07:07:37;;;;;;;12.32;5.80;;;8.70;99.90;;;;;;5040611;28;20021;-88
2022/10/10 07:10:04;;;;;;;9.32;5.93;;;8.80;99.90;;;;;;5048608;28;20033;-89
2022/10/10 07:12:30;;;;;;;10.30;5.82;;;8.90;99.90;;;;;;5044825;28;20567;-89
2022/10/10 07:14:55;;;;;;;11.60;6.00;;;9.00;99.90;;;;;;5041581;28;20026;-88
2022/10/10 07:17:21;;;;;;;12.75;5.47;;;9.10;99.90;;;;;;5047854;28;20032;-89
2022/10/10 07:19:46;;;;;;;12.48;6.43;;;9.20;99.90;;;;;;5036835;28;20451;-90
2022/10/10 07:22:12;;;;;;;11.40;6.13;;;9.30;99.90;;;;;;5032943;28;20091;-90
2022/10/10 07:24:38;;;;;;;12.30;6.22;;;9.40;99.90;;;;;;5036963;28;20029;-90
2022/10/10 07:27:03;;;;;;;14.40;6.30;;;9.60;99.90;;;;;;5035266;28;20033;-89
2022/10/10 07:29:29;;;;;;;11.27;5.82;;;9.60;99.90;;;;;;5039909;28;20374;-90
2022/10/10 07:31:55;;;;;;;12.00;6.22;;;9.70;99.90;;;;;;5043838;28;20115;-88
2022/10/10 07:34:21;;;;;;;10.23;5.32;;;9.80;99.90;;;;;;5038361;28;20035;-89
2022/10/10 07:36:49;;;;;;;12.27;6.35;;;9.90;99.90;;;;;;5041584;28;20021;-91
2022/10/10 07:39:24;;;;;;;16.05;5.97;;;10.10;99.90;;;;;;5046124;28;20053;-91
2022/10/10 07:41:50;;;;;;;13.43;7.00;;;10.20;99.90;;;;;;5034752;28;20035;-90
2022/10/10 07:44:17;;;;;;;13.02;6.05;;;10.20;99.90;;;;;;5048874;28;20028;-90
2022/10/10 07:46:43;;;;;;;13.05;7.10;;;10.30;99.90;;;;;;5043669;28;20029;-89
2022/10/10 07:49:09;;;;;;;11.27;6.15;;;10.40;99.90;;;;;;5041818;28;20033;-89
2022/10/10 07:51:34;;;;;;;9.20;6.18;;;10.60;99.90;;;;;;5049521;28;20072;-90
2022/10/10 07:54:00;;;;;;;14.57;6.82;;;10.80;99.90;;;;;;5047266;28;20025;-89
2022/10/10 07:56:26;;;;;;;16.42;7.88;;;11.00;99.90;;;;;;5036288;28;20025;-89
2022/10/10 07:58:51;;;;;;;10.07;5.82;;;11.20;99.90;;;;;;5042477;28;20026;-89
2022/10/10 08:01:17;;;;;;;13.63;6.38;;;11.40;99.90;;;;;;5039654;28;20432;-90
2022/10/10 08:03:43;;;;;;;15.02;6.30;;;11.50;99.90;;;;;;5049013;28;20529;-90
2022/10/10 08:06:12;;;;;;;8.88;4.95;;;11.60;99.90;;;;;;5044690;28;20116;-89
2022/10/10 08:08:38;;;;;;;9.95;5.43;;;11.80;99.90;;;;;;5049079;28;20032;-88
2022/10/10 08:11:08;;;;;;;14.75;6.60;;;11.90;99.90;;;;;;5039793;28;20049;-89
2022/10/10 08:13:35;;;;;;;10.82;5.50;;;12.00;99.90;;;;;;5039521;28;20567;-89
2022/10/10 08:16:01;;;;;;;12.85;6.22;;;12.00;99.90;;;;;;5051413;28;20033;-89
2022/10/10 08:18:27;;;;;;;13.02;6.07;;;12.10;99.90;;;;;;5039573;28;20030;-89
2022/10/10 08:21:03;;;;;;;9.75;4.97;;;12.10;99.90;;;;;;5047897;28;20050;-90
2022/10/10 08:23:29;;;;;;;8.02;4.75;;;12.10;99.90;;;;;;5047724;28;20026;-90
2022/10/10 08:25:58;;;;;;;13.77;5.65;;;12.10;99.90;;;;;;5047628;28;20103;-89
2022/10/10 08:28:23;;;;;;;10.15;5.28;;;12.10;99.90;;;;;;5043843;28;20029;-90
2022/10/10 08:30:49;;;;;;;16.35;5.18;;;12.10;99.90;;;;;;5047051;28;20095;-90
2022/10/10 08:33:14;;;;;;;12.02;5.25;;;12.10;99.90;;;;;;5047332;28;20120;-90
2022/10/10 08:35:40;;;;;;;11.35;5.50;;;12.20;99.90;;;;;;5044745;28;20053;-91
2022/10/10 08:38:07;;;;;;;12.00;4.93;;;12.20;99.90;;;;;;5045710;28;20539;-90
2022/10/10 08:40:39;;;;;;;10.15;4.90;;;12.20;99.90;;;;;;5049790;28;20063;-90
2022/10/10 08:43:08;;;;;;;11.00;5.25;;;12.30;99.90;;;;;;5046035;28;20033;-90
2022/10/10 08:45:34;;;;;;;10.65;5.15;;;12.30;99.90;;;;;;5044067;28;20045;-90
2022/10/10 08:48:15;;;;;;;12.43;5.85;;;12.40;99.90;;;;;;5047879;28;20028;-89
2022/10/10 08:51:10;;;;;;;11.23;5.85;;;12.40;99.90;;;;;;5044923;28;20037;-89
2022/10/10 08:53:42;;;;;;;10.95;5.30;;;12.60;99.90;;;;;;5050206;28;20083;-90
2022/10/10 08:56:14;;;;;;;10.23;5.53;;;12.60;99.90;;;;;;5042519;28;20048;-90
2022/10/10 08:58:45;;;;;;;10.80;5.45;;;12.70;99.90;;;;;;5052422;28;20037;-90
2022/10/10 09:01:23;;;;;;;10.67;5.93;;;12.80;99.90;;;;;;5036050;28;20367;-89
2022/10/10 09:04:17;;;;;;;13.98;6.15;;;13.00;99.90;;;;;;5047809;28;20036;-91
2022/10/10 09:07:13;;;;;;;10.73;5.70;;;13.30;99.90;;;;;;5046321;28;20652;-91
2022/10/10 09:09:56;;;;;;;11.02;4.95;;;13.50;99.90;;;;;;5049303;28;20497;-90
2022/10/10 09:12:57;;;;;;;12.82;5.20;;;13.70;99.90;;;;;;5051499;28;20041;-90
2022/10/10 09:15:36;;;;;;;9.07;5.13;;;13.80;99.90;;;;;;5043662;28;20025;-89
2022/10/10 09:18:16;;;;;;;10.25;4.97;;;13.90;99.90;;;;;;5049944;28;20093;-89
2022/10/10 09:21:02;;;;;;;10.10;4.88;;;13.90;99.90;;;;;;5044912;28;20028;-88
2022/10/10 09:23:41;;;;;;;10.98;5.38;;;13.90;99.90;;;;;;5046337;28;20473;-89
2022/10/10 09:26:18;;;;;;;10.20;4.93;;;14.00;99.90;;;;;;5051605;28;20026;-89
2022/10/10 09:28:54;;;;;;;13.13;5.93;;;14.10;99.90;;;;;;5040015;28;20027;-87
2022/10/10 09:31:46;;;;;;;9.20;4.65;;;14.20;99.90;;;;;;5046164;28;20079;-88
2022/10/10 09:34:18;;;;;;;9.68;5.18;;;14.30;99.90;;;;;;5046048;28;20159;-89
2022/10/10 09:36:44;;;;;;;9.63;4.65;;;14.40;99.90;;;;;;5047495;28;20508;-89
2022/10/10 09:39:28;;;;;;;7.18;4.13;;;14.60;99.90;;;;;;5050869;28;20025;-90
2022/10/10 09:41:59;;;;;;;9.05;4.10;;;14.80;99.90;;;;;;5047988;28;20130;-90
2022/10/10 09:44:25;;;;;;;9.35;4.32;;;15.00;99.90;;;;;;5051612;28;20025;-89
2022/10/10 09:46:52;;;;;;;11.23;4.10;;;15.20;99.90;;;;;;5053630;28;20025;-91
2022/10/10 09:49:19;;;;;;;7.20;3.90;;;15.40;99.90;;;;;;5050586;28;20017;-90
2022/10/10 09:51:47;;;;;;;9.40;3.88;;;15.50;99.90;;;;;;5053422;28;20461;-90
2022/10/10 09:54:19;;;;;;;10.48;4.70;;;15.70;99.90;;;;;;5052842;28;20075;-91
2022/10/10 09:56:54;;;;;;;8.65;3.63;;;15.70;99.90;;;;;;5051623;28;20024;-91
2022/10/10 09:59:40;;;;;;;8.57;4.05;;;15.80;99.90;;;;;;5049118;28;20059;-90
2022/10/10 10:02:25;;;;;;;9.70;4.05;;;15.90;99.90;;;;;;5038735;28;20079;-90
2022/10/10 10:04:52;;;;;;;8.15;3.80;;;16.00;99.90;;;;;;5045433;28;20033;-90
2022/10/10 10:07:23;;;;;;;8.23;3.97;;;16.10;99.90;;;;;;5044243;28;20048;-90
2022/10/10 10:09:55;;;;;;;5.65;3.67;;;16.10;99.90;;;;;;5048684;28;20025;-91
2022/10/10 10:12:43;;;;;;;7.85;3.15;;;16.10;99.90;;;;;;5048037;28;20045;-90
2022/10/10 10:15:27;;;;;;;10.10;3.95;;;16.20;99.90;;;;;;5044378;28;20056;-90
2022/10/10 10:18:24;;;;;;;11.80;3.50;;;16.20;99.90;;;;;;5055727;28;20044;-90
2022/10/10 10:21:08;;;;;;;9.93;3.63;;;16.30;99.90;;;;;;5048035;28;20025;-89
2022/10/10 10:23:40;;;;;;;9.80;3.38;;;16.40;99.90;;;;;;5050949;28;20033;-88
2022/10/10 10:26:28;;;;;;;7.30;3.33;;;16.50;99.90;;;;;;5048635;28;20026;-90
2022/10/10 10:28:56;;;;;;;8.98;3.53;;;16.60;99.90;;;;;;5039105;28;20127;-91
2022/10/10 10:31:46;;;;;;;9.65;3.85;;;16.60;99.90;;;;;;5042508;28;20060;-90
2022/10/10 10:34:44;;;;;;;6.10;3.20;;;16.60;99.90;;;;;;5047079;28;20032;-90
2022/10/10 10:37:23;;;;;;;8.85;3.15;;;16.60;99.90;;;;;;5045218;28;20021;-89
2022/10/10 10:40:16;;;;;;;8.93;3.72;;;16.60;99.90;;;;;;5047707;28;20397;-90
2022/10/10 10:43:07;;;;;;;5.50;3.10;;;16.60;99.90;;;;;;5046786;28;20025;-90
2022/10/10 10:46:04;;;;;;;6.45;3.13;;;16.70;99.90;;;;;;5041591;28;20436;-90
2022/10/10 10:48:45;;;;;;;7.70;3.03;;;16.80;99.90;;;;;;5032524;28;20080;-90
2022/10/10 10:51:36;;;;;;;6.43;3.15;;;16.90;99.90;;;;;;5039539;28;20033;-92
2022/10/10 10:54:35;;;;;;;7.07;3.30;;;16.90;99.90;;;;;;5050062;28;20122;-91
2022/10/10 10:57:14;;;;;;;5.75;3.25;;;16.80;99.90;;;;;;5047496;28;20029;-92
2022/10/10 10:59:54;;;;;;;11.00;3.20;;;16.80;99.90;;;;;;5050607;28;20044;-92
2022/10/10 11:02:33;;;;;;;9.80;3.15;;;16.80;99.90;;;;;;5048614;28;21716;-91
2022/10/10 11:05:27;;;;;;;6.97;3.25;;;16.90;99.90;;;;;;5051687;28;20092;-92
2022/10/10 11:08:11;;;;;;;11.35;3.55;;;17.00;99.90;;;;;;5041667;28;20552;-91
2022/10/10 11:10:54;;;;;;;5.63;2.85;;;17.00;99.90;;;;;;5040123;28;20033;-90
2022/10/10 11:13:36;;;;;;;9.85;2.55;;;17.00;99.90;;;;;;5049527;28;20053;-90
2022/10/10 11:16:07;;;;;;;5.25;2.75;;;17.00;99.90;;;;;;5046926;28;20493;-91
2022/10/10 11:18:40;;;;;;;8.05;2.30;;;17.10;99.90;;;;;;5038194;28;20033;-87
2022/10/10 11:21:23;;;;;;;10.02;2.65;;;17.10;99.90;;;;;;5043184;28;20088;-90
2022/10/10 11:24:09;;;;;;;6.22;2.80;;;17.30;99.90;;;;;;5045076;28;20029;-90
2022/10/10 11:26:47;;;;;;;7.75;2.80;;;17.30;99.90;;;;;;5047231;28;20057;-89
2022/10/10 11:29:31;;;;;;;6.88;2.88;;;17.50;99.90;;;;;;5047165;28;20031;-88
2022/10/10 11:32:12;;;;;;;6.78;2.53;;;17.60;99.90;;;;;;5048967;28;20488;-90
2022/10/10 11:34:42;;;;;;;8.07;2.13;;;17.70;99.90;;;;;;5049528;28;20027;-89
2022/10/10 11:37:14;;;;;;;6.00;2.45;;;17.70;99.90;;;;;;5047310;28;20135;-89
2022/10/10 11:39:55;;;;;;;9.52;2.75;;;17.80;99.90;;;;;;5049487;28;20031;-89
2022/10/10 11:42:36;;;;;;;7.05;2.15;;;17.90;99.90;;;;;;5039780;28;20037;-89
2022/10/10 11:45:08;;;;;;;6.88;2.90;;;18.00;99.90;;;;;;5053595;28;20033;-89
2022/10/10 11:47:39;;;;;;;6.60;2.75;;;18.30;99.90;;;;;;5040767;28;20033;-89
2022/10/10 11:50:20;;;;;;;9.00;2.85;;;18.30;99.90;;;;;;5038771;28;20029;-89
2022/10/10 11:53:06;;;;;;;6.22;2.97;;;18.30;99.90;;;;;;5039422;28;20082;-90
2022/10/10 11:55:53;;;;;;;10.18;2.80;;;18.30;99.90;;;;;;5044355;28;20025;-89
2022/10/10 11:58:36;;;;;;;7.70;2.17;;;18.40;99.90;;;;;;5040651;28;20044;-86
2022/10/10 12:01:13;;;;;;;7.72;2.90;;;18.60;99.90;;;;;;5048622;28;20389;-88
2022/10/10 12:03:39;;;;;;;8.88;2.45;;;18.70;99.90;;;;;;5053791;28;20033;-88
2022/10/10 12:06:16;;;;;;;7.65;2.40;;;18.80;99.90;;;;;;5046070;28;20039;-86
2022/10/10 12:09:05;;;;;;;7.80;2.42;;;18.80;99.90;;;;;;5056431;28;20021;-88
2022/10/10 12:11:46;;;;;;;9.23;2.75;;;18.90;99.90;;;;;;5050759;28;20040;-87
2022/10/10 12:14:16;;;;;;;9.38;2.05;;;19.10;99.90;;;;;;5045635;28;20076;-88
2022/10/10 12:16:42;;;;;;;11.77;3.08;;;19.30;99.90;;;;;;5046972;28;20032;-87
2022/10/10 12:19:20;;;;;;;7.32;2.40;;;19.40;99.90;;;;;;5050347;28;20029;-87
2022/10/10 12:22:07;;;;;;;6.28;2.08;;;19.40;99.90;;;;;;5050442;28;20021;-88
2022/10/10 12:24:35;;;;;;;8.07;1.88;;;19.40;99.90;;;;;;5048529;28;20021;-88
2022/10/10 12:27:04;;;;;;;11.15;2.20;;;19.30;99.90;;;;;;5050211;28;20025;-88
2022/10/10 12:30:07;;;;;;;9.48;2.42;;;19.20;99.90;;;;;;5051230;28;20036;-87
2022/10/10 12:32:41;;;;;;;10.32;2.47;;;19.10;99.90;;;;;;5045724;28;20156;-87
2022/10/10 12:35:43;;;;;;;7.53;1.83;;;18.90;99.90;;;;;;5046032;28;20527;-89
2022/10/10 12:38:25;;;;;;;9.97;2.30;;;18.80;99.90;;;;;;5043372;28;20029;-89
2022/10/10 12:40:56;;;;;;;10.50;3.53;;;18.80;99.90;;;;;;5053179;28;20042;-88
2022/10/10 12:43:39;;;;;;;9.38;2.88;;;18.70;99.90;;;;;;5053627;28;20037;-88
2022/10/10 12:46:23;;;;;;;6.68;2.70;;;18.60;99.90;;;;;;5045781;28;20378;-88
2022/10/10 12:48:59;;;;;;;13.20;3.78;;;18.50;99.90;;;;;;5044630;28;20071;-88
2022/10/10 12:51:27;;;;;;;16.65;2.97;;;18.40;99.90;;;;;;5051261;28;20316;-88
2022/10/10 12:53:56;;;;;;;5.07;3.00;;;18.30;99.90;;;;;;5045622;28;20021;-89
2022/10/10 12:56:40;;;;;;;10.80;3.40;;;18.30;99.90;;;;;;5051426;28;20029;-87
2022/10/10 12:59:19;;;;;;;8.63;3.47;;;18.10;99.90;;;;;;5045941;28;20024;-90
2022/10/10 13:01:50;;;;;;;8.45;2.97;;;17.90;99.90;;;;;;5058413;28;20029;-88
2022/10/10 13:04:18;;;;;;;14.75;3.50;;;17.80;99.90;;;;;;5048333;28;20021;-86
2022/10/10 13:06:45;;;;;;;9.02;3.40;;;17.70;99.90;;;;;;5049590;28;20025;-88
2022/10/10 13:09:19;;;;;;;8.63;3.30;;;17.60;99.90;;;;;;5050487;28;20028;-90
2022/10/10 13:12:00;;;;;;;11.35;3.83;;;17.50;99.90;;;;;;5041616;28;20047;-90